Time;durP1;ratioP1;P1;durP2;ratioP2;P2;SDS_P1;SDS_P2;PMS_P1;PMS_P2;Temp;Humidity;BMP_temperature;BMP_pressure;BME280_temperature;BME280_humidity;BME280_pressure;Samples;Min_cycle;Max_cycle;Signal;HPM_P1;HPM_P2
2022/11/10 00:01:17;;;;;;;3.27;3.07;;;16.00;81.40;16.30;96744.00;;;;5072191;28;20220;-86
2022/11/10 00:03:45;;;;;;;3.50;3.20;;;16.00;81.40;16.30;96746.00;;;;5069716;28;20242;-86
2022/11/10 00:06:12;;;;;;;3.47;3.27;;;16.00;81.40;16.30;96753.00;;;;5069865;28;20235;-86
2022/11/10 00:08:39;;;;;;;5.50;3.27;;;16.00;81.40;16.30;96750.00;;;;5078342;28;20683;-86
2022/11/10 00:11:08;;;;;;;3.10;2.90;;;16.00;82.20;16.30;96748.00;;;;5065366;28;20224;-86
2022/11/10 00:16:59;;;;;;;3.07;2.83;;;16.00;81.50;16.30;96749.00;;;;5075593;28;20195;-86
2022/11/10 00:19:10;;;;;;;3.13;2.90;;;16.00;81.20;16.30;96759.00;;;;5070725;28;20272;-86
2022/11/10 00:21:38;;;;;;;3.30;3.10;;;16.00;81.10;16.30;96759.00;;;;5069373;28;20246;-85
2022/11/10 00:24:06;;;;;;;3.53;3.33;;;16.00;81.10;16.30;96764.00;;;;5073437;28;20230;-85
2022/11/10 00:26:34;;;;;;;3.27;3.07;;;16.00;81.10;16.30;96757.00;;;;5069490;28;20606;-86
2022/11/10 00:29:01;;;;;;;3.30;3.10;;;16.00;81.10;16.30;96761.00;;;;5067191;28;20200;-86
2022/11/10 00:31:29;;;;;;;2.97;2.73;;;16.00;81.00;16.20;96768.00;;;;5070092;28;20230;-85
2022/11/10 00:33:56;;;;;;;3.80;3.20;;;16.00;81.00;16.20;96775.00;;;;5071954;28;20299;-85
2022/11/10 00:36:23;;;;;;;3.03;2.83;;;16.00;81.00;16.20;96776.00;;;;5072353;28;20631;-86
2022/11/10 00:38:51;;;;;;;3.10;2.90;;;16.00;81.10;16.20;96766.00;;;;5065147;28;20274;-86
2022/11/10 00:41:19;;;;;;;3.17;2.97;;;16.00;81.00;16.20;96779.00;;;;5072430;28;20694;-85
2022/11/10 00:43:48;;;;;;;3.53;3.30;;;16.00;81.10;16.20;96774.00;;;;5068329;28;20247;-85
2022/11/10 00:46:15;;;;;;;3.13;2.93;;;16.00;81.10;16.20;96773.00;;;;5077739;28;20295;-85
2022/11/10 00:48:43;;;;;;;3.30;3.10;;;16.00;81.20;16.20;96784.00;;;;5071939;28;20246;-85
2022/11/10 00:51:20;;;;;;;3.10;2.90;;;16.00;81.20;16.20;96792.00;;;;5071941;28;20625;-85
2022/11/10 00:53:47;;;;;;;3.13;2.87;;;16.00;81.30;16.20;96799.00;;;;5070399;28;20239;-85
2022/11/10 00:56:15;;;;;;;3.07;2.87;;;16.00;81.20;16.20;96801.00;;;;5064403;28;20207;-84
2022/11/10 00:58:43;;;;;;;3.00;2.80;;;15.90;81.20;16.10;96800.00;;;;5062245;28;20216;-85
2022/11/10 01:01:12;;;;;;;2.90;2.70;;;15.90;81.10;16.10;96813.00;;;;5071173;28;20257;-85
2022/11/10 01:03:40;;;;;;;3.20;2.90;;;15.90;81.10;16.10;96805.00;;;;5077500;28;20223;-85
2022/11/10 01:06:10;;;;;;;2.70;2.50;;;15.90;81.10;16.10;96800.00;;;;5076022;28;20292;-85
2022/11/10 01:08:39;;;;;;;2.83;2.63;;;15.90;81.10;16.00;96818.00;;;;5074655;28;20258;-85
2022/11/10 01:11:09;;;;;;;2.90;2.70;;;15.90;81.10;16.00;96818.00;;;;5074863;28;20224;-85
2022/11/10 01:13:37;;;;;;;3.23;3.03;;;15.90;81.20;16.00;96817.00;;;;5074586;28;20240;-85
2022/11/10 01:16:05;;;;;;;2.93;2.73;;;15.90;81.30;16.00;96811.00;;;;5073500;28;20604;-86
2022/11/10 01:18:35;;;;;;;3.00;2.80;;;15.90;81.30;16.00;96817.00;;;;5073031;28;20222;-85
2022/11/10 01:21:02;;;;;;;2.97;2.77;;;15.90;81.50;16.00;96818.00;;;;5075482;28;20292;-85
2022/11/10 01:23:30;;;;;;;3.03;2.83;;;15.90;81.50;16.00;96818.00;;;;5072513;28;20783;-85
2022/11/10 01:25:59;;;;;;;2.77;2.57;;;15.80;81.30;16.00;96805.00;;;;5070568;28;20275;-85
2022/11/10 01:28:26;;;;;;;2.80;2.60;;;15.80;81.40;16.00;96810.00;;;;5086560;28;20204;-85
2022/11/10 01:30:58;;;;;;;2.70;2.60;;;15.80;81.40;16.00;96816.00;;;;5074872;28;20204;-85
2022/11/10 01:33:25;;;;;;;2.90;2.70;;;15.80;81.50;16.00;96809.00;;;;5077062;28;21828;-85
2022/11/10 01:35:54;;;;;;;2.83;2.63;;;15.80;81.50;16.00;96816.00;;;;5076450;28;20667;-85
2022/11/10 01:38:22;;;;;;;3.00;2.80;;;15.80;81.50;16.00;96815.00;;;;5077186;28;20250;-85
2022/11/10 01:40:49;;;;;;;2.40;2.20;;;15.80;81.40;15.90;96818.00;;;;5076246;28;20741;-85
2022/11/10 01:43:17;;;;;;;2.70;2.50;;;15.80;81.50;15.90;96821.00;;;;5078451;28;20286;-85
2022/11/10 01:45:49;;;;;;;2.37;2.27;;;15.80;81.50;15.90;96826.00;;;;5074816;28;20247;-85
2022/11/10 01:48:31;;;;;;;2.37;2.27;;;15.80;81.50;15.90;96828.00;;;;5073997;28;20193;-86
2022/11/10 01:51:05;;;;;;;1.97;1.87;;;15.80;81.50;15.90;96830.00;;;;5059560;28;20220;-86
2022/11/10 01:53:36;;;;;;;2.23;2.13;;;15.80;81.50;15.90;96837.00;;;;5074538;28;20219;-85
2022/11/10 01:56:06;;;;;;;2.00;1.90;;;15.80;81.40;15.90;96838.00;;;;5075545;28;20664;-85
2022/11/10 01:58:39;;;;;;;2.40;2.30;;;15.80;81.50;16.00;96841.00;;;;5073944;28;20242;-85
2022/11/10 02:01:07;;;;;;;2.33;1.93;;;15.80;81.70;16.00;96843.00;;;;5068512;28;20195;-86
2022/11/10 02:03:42;;;;;;;1.70;1.60;;;15.80;81.70;16.00;96846.00;;;;5075161;28;20809;-85
2022/11/10 02:06:11;;;;;;;1.90;1.80;;;15.80;81.70;16.00;96854.00;;;;5074764;28;20199;-85
2022/11/10 02:08:39;;;;;;;2.20;2.00;;;15.80;81.70;16.00;96859.00;;;;5075420;28;20200;-86
2022/11/10 02:11:07;;;;;;;1.77;1.57;;;15.80;81.70;16.00;96858.00;;;;5076005;28;20207;-86
2022/11/10 02:13:34;;;;;;;1.97;1.87;;;15.80;81.70;16.00;96863.00;;;;5077021;28;20220;-86
2022/11/10 02:16:02;;;;;;;1.60;1.50;;;15.80;81.80;16.00;96866.00;;;;5075321;28;20279;-86
2022/11/10 02:18:29;;;;;;;1.50;1.40;;;15.80;81.70;16.00;96857.00;;;;5073861;28;20200;-84
2022/11/10 02:20:57;;;;;;;1.27;1.23;;;15.80;81.90;16.00;96860.00;;;;5070571;28;20230;-85
2022/11/10 02:23:48;;;;;;;0.80;0.80;;;15.80;81.90;16.00;96856.00;;;;5074352;28;20255;-85
2022/11/10 02:26:20;;;;;;;0.63;0.63;;;15.80;82.20;15.90;96856.00;;;;5074999;28;20192;-85
2022/11/10 02:28:48;;;;;;;0.70;0.60;;;15.70;81.70;15.90;96861.00;;;;5073886;28;20208;-85
2022/11/10 02:31:16;;;;;;;0.60;0.60;;;15.70;81.60;15.90;96870.00;;;;5059727;28;20204;-85
2022/11/10 02:33:43;;;;;;;1.00;0.60;;;15.70;81.70;15.90;96871.00;;;;5071053;28;20298;-85
2022/11/10 02:36:12;;;;;;;0.50;0.50;;;15.70;81.80;15.90;96864.00;;;;5074121;28;20202;-85
2022/11/10 02:38:40;;;;;;;0.83;0.60;;;15.70;81.80;15.90;96861.00;;;;5067750;28;20232;-85
2022/11/10 02:41:07;;;;;;;0.30;0.30;;;15.70;81.80;15.90;96861.00;;;;5073843;28;20220;-86
2022/11/10 02:43:36;;;;;;;0.40;0.40;;;15.70;81.90;15.90;96864.00;;;;5077573;28;20268;-86
2022/11/10 02:46:04;;;;;;;1.50;0.57;;;15.70;81.90;15.90;96861.00;;;;5074217;28;20657;-85
2022/11/10 02:48:31;;;;;;;0.97;0.37;;;15.70;82.00;15.90;96873.00;;;;5067638;28;20191;-86
2022/11/10 02:50:58;;;;;;;0.40;0.40;;;15.60;81.90;15.90;96863.00;;;;5079902;28;20290;-85
2022/11/10 02:53:27;;;;;;;0.30;0.30;;;15.60;81.90;15.90;96871.00;;;;5068351;28;20589;-85
2022/11/10 02:55:54;;;;;;;0.67;0.40;;;15.60;82.00;15.90;96887.00;;;;5073960;28;20220;-86
2022/11/10 02:58:21;;;;;;;1.63;0.37;;;15.60;82.00;15.90;96889.00;;;;5070333;28;20279;-85
2022/11/10 03:00:48;;;;;;;1.30;0.50;;;15.60;82.10;15.90;96894.00;;;;5062011;28;20220;-86
2022/11/10 03:03:15;;;;;;;0.40;0.40;;;15.60;82.10;15.90;96892.00;;;;5066933;28;20235;-86
2022/11/10 03:05:43;;;;;;;0.83;0.60;;;15.60;82.10;15.90;96894.00;;;;5072710;28;20613;-85
2022/11/10 03:08:10;;;;;;;2.13;0.43;;;15.60;82.20;15.90;96906.00;;;;5073232;28;20200;-85
2022/11/10 03:10:38;;;;;;;0.40;0.40;;;15.60;82.10;15.90;96912.00;;;;5072851;28;20283;-86
2022/11/10 03:13:05;;;;;;;0.87;0.50;;;15.60;82.10;15.90;96918.00;;;;5070965;28;20286;-86
2022/11/10 03:15:33;;;;;;;0.53;0.50;;;15.60;82.00;15.90;96919.00;;;;5068561;28;20295;-86
2022/11/10 03:18:04;;;;;;;0.50;0.40;;;15.60;82.00;15.80;96926.00;;;;5071316;28;20295;-86
2022/11/10 03:20:32;;;;;;;2.03;0.30;;;15.60;81.90;15.80;96925.00;;;;5072718;28;20302;-85
2022/11/10 03:23:03;;;;;;;1.00;0.40;;;15.60;81.80;15.80;96935.00;;;;5075658;28;20204;-86
2022/11/10 03:25:30;;;;;;;0.70;0.50;;;15.60;81.80;15.80;96931.00;;;;5071332;28;20215;-86
2022/11/10 03:27:59;;;;;;;0.87;0.40;;;15.50;81.70;15.80;96943.00;;;;5070378;28;20215;-86
2022/11/10 03:30:27;;;;;;;0.77;0.30;;;15.50;81.70;15.80;96945.00;;;;5075434;28;20678;-86
2022/11/10 03:32:55;;;;;;;0.33;0.20;;;15.50;81.70;15.80;96941.00;;;;5064660;28;20242;-85
2022/11/10 03:35:22;;;;;;;1.50;0.50;;;15.50;81.70;15.80;96951.00;;;;5071478;28;20216;-86
2022/11/10 03:37:49;;;;;;;1.00;0.50;;;15.50;81.80;15.80;96956.00;;;;5070667;28;20196;-86
2022/11/10 03:40:16;;;;;;;0.40;0.40;;;15.50;81.70;15.80;96951.00;;;;5072264;28;20307;-85
2022/11/10 03:42:45;;;;;;;1.50;0.43;;;15.50;81.60;15.80;96962.00;;;;5069291;28;20199;-85
2022/11/10 03:45:15;;;;;;;1.00;0.43;;;15.50;81.60;15.80;96960.00;;;;5069060;28;20311;-85
2022/11/10 03:47:46;;;;;;;0.47;0.40;;;15.50;81.60;15.80;96960.00;;;;5072495;28;20249;-85
2022/11/10 03:50:14;;;;;;;3.33;0.40;;;15.50;81.50;15.80;96971.00;;;;5070417;28;20191;-86
2022/11/10 03:52:43;;;;;;;1.40;0.50;;;15.50;81.50;15.70;96972.00;;;;5063613;28;20284;-86
2022/11/10 03:55:12;;;;;;;0.90;0.50;;;15.50;81.60;15.70;96971.00;;;;5073382;28;20238;-86
2022/11/10 03:57:39;;;;;;;1.27;0.47;;;15.50;81.70;15.70;96980.00;;;;5064844;28;20224;-86
2022/11/10 04:00:10;;;;;;;1.80;0.60;;;15.40;81.70;15.70;96986.00;;;;5080872;28;20304;-86
2022/11/10 04:02:39;;;;;;;0.80;0.40;;;15.40;82.30;15.70;96984.00;;;;5072527;28;20671;-86
2022/11/10 04:10:47;;;;;;;1.90;0.60;;;15.40;81.80;15.70;96990.00;;;;5073039;28;20203;-85
2022/11/10 04:15:58;;;;;;;1.20;0.70;;;15.40;81.60;15.60;96992.00;;;;5065879;28;20273;-86
2022/11/10 04:18:28;;;;;;;2.87;0.80;;;15.40;81.60;15.60;97000.00;;;;5072158;28;20287;-86
2022/11/10 04:20:58;;;;;;;2.97;0.50;;;15.40;81.70;15.60;96999.00;;;;5066572;28;20239;-85
2022/11/10 04:23:29;;;;;;;0.50;0.50;;;15.40;81.70;15.60;97000.00;;;;5063279;28;20188;-85
2022/11/10 04:28:47;;;;;;;1.03;0.30;;;15.30;81.60;15.60;97005.00;;;;5072264;28;20254;-86
2022/11/10 04:31:15;;;;;;;2.33;0.70;;;15.30;81.50;15.50;97010.00;;;;5076476;28;20227;-86
2022/11/10 04:33:45;;;;;;;1.30;0.50;;;15.30;81.60;15.50;97015.00;;;;5070495;28;20291;-86
2022/11/10 04:36:15;;;;;;;0.90;0.60;;;15.30;81.60;15.50;97010.00;;;;5071479;28;20196;-86
2022/11/10 04:38:42;;;;;;;0.40;0.40;;;15.30;81.60;15.50;97013.00;;;;5070693;28;20193;-86
2022/11/10 04:41:10;;;;;;;0.60;0.40;;;15.30;81.40;15.50;97016.00;;;;5070033;28;20251;-86
2022/11/10 04:43:38;;;;;;;1.60;0.40;;;15.20;81.30;15.50;97018.00;;;;5075074;28;20200;-86
2022/11/10 04:46:08;;;;;;;0.77;0.60;;;15.20;81.30;15.40;97021.00;;;;5072923;28;20231;-85
2022/11/10 04:48:36;;;;;;;3.13;0.50;;;15.20;81.20;15.40;97029.00;;;;5074601;28;20280;-86
2022/11/10 04:51:07;;;;;;;0.40;0.40;;;15.20;81.20;15.40;97039.00;;;;5075967;28;20235;-86
2022/11/10 04:53:34;;;;;;;0.80;0.70;;;15.20;81.20;15.40;97036.00;;;;5073117;28;20196;-85
2022/11/10 04:56:01;;;;;;;1.80;0.83;;;15.20;81.10;15.40;97046.00;;;;5066019;28;20284;-86
2022/11/10 04:58:29;;;;;;;1.10;0.60;;;15.20;81.10;15.40;97054.00;;;;5074359;28;20219;-86
2022/11/10 05:00:56;;;;;;;0.40;0.40;;;15.10;81.10;15.40;97055.00;;;;5079511;28;20275;-85
2022/11/10 05:03:25;;;;;;;2.10;0.77;;;15.10;81.10;15.30;97063.00;;;;5074966;28;20873;-86
2022/11/10 05:05:52;;;;;;;3.90;0.83;;;15.10;81.10;15.30;97070.00;;;;5070056;28;20434;-86
2022/11/10 05:08:21;;;;;;;1.00;0.73;;;15.10;81.10;15.30;97071.00;;;;5067839;28;20283;-86
2022/11/10 05:10:48;;;;;;;1.80;0.87;;;15.10;81.10;15.30;97069.00;;;;5075202;28;20200;-86
2022/11/10 05:13:15;;;;;;;0.70;0.70;;;15.10;81.10;15.30;97064.00;;;;5075209;28;20287;-85
2022/11/10 05:15:42;;;;;;;0.60;0.60;;;15.00;81.10;15.30;97066.00;;;;5074814;28;20239;-85
2022/11/10 05:18:09;;;;;;;1.20;0.80;;;15.10;81.20;15.30;97075.00;;;;5081088;28;20196;-86
2022/11/10 05:20:37;;;;;;;0.80;0.60;;;15.10;82.00;15.30;97073.00;;;;5078830;28;20250;-84
2022/11/10 05:25:50;;;;;;;1.13;1.00;;;15.00;81.10;15.20;97074.00;;;;5073806;28;20214;-87
2022/11/10 05:28:17;;;;;;;2.20;1.23;;;15.00;81.10;15.20;97074.00;;;;5073400;28;20192;-85
2022/11/10 05:30:44;;;;;;;1.27;1.10;;;15.00;81.00;15.20;97088.00;;;;5076292;28;20624;-86
2022/11/10 05:33:12;;;;;;;1.87;0.70;;;15.00;81.00;15.20;97079.00;;;;5069841;28;20283;-86
2022/11/10 05:35:39;;;;;;;0.93;0.90;;;15.00;80.80;15.20;97096.00;;;;5079549;28;20250;-86
2022/11/10 05:38:07;;;;;;;1.30;1.20;;;14.90;80.70;15.10;97105.00;;;;5072773;28;20200;-86
2022/11/10 05:40:35;;;;;;;4.03;1.57;;;15.00;80.50;15.10;97096.00;;;;5076726;28;20361;-86
2022/11/10 05:43:04;;;;;;;2.37;1.37;;;14.90;80.30;15.10;97105.00;;;;5062210;28;20200;-87
2022/11/10 05:45:31;;;;;;;2.07;1.40;;;14.90;80.30;15.00;97106.00;;;;5076459;28;20310;-86
2022/11/10 05:47:59;;;;;;;1.50;1.10;;;14.90;80.10;15.00;97118.00;;;;5076330;28;20192;-86
2022/11/10 05:50:26;;;;;;;1.63;1.17;;;14.80;79.80;15.00;97119.00;;;;5075711;28;20283;-86
2022/11/10 05:52:55;;;;;;;1.03;0.97;;;14.80;79.70;14.90;97115.00;;;;5075231;28;20844;-86
2022/11/10 05:55:27;;;;;;;1.43;1.33;;;14.80;79.70;14.80;97129.00;;;;5075706;28;20247;-86
2022/11/10 05:57:57;;;;;;;1.30;1.20;;;14.70;79.40;14.80;97134.00;;;;5072085;28;21007;-86
2022/11/10 06:00:28;;;;;;;1.90;1.10;;;14.70;79.50;14.70;97130.00;;;;5076217;28;20825;-87
2022/11/10 06:03:01;;;;;;;1.17;1.10;;;14.60;79.50;14.70;97136.00;;;;5076826;28;20192;-86
2022/11/10 06:05:29;;;;;;;1.30;1.20;;;14.60;79.40;14.70;97138.00;;;;5075852;28;20287;-87
2022/11/10 06:07:57;;;;;;;1.27;1.17;;;14.50;79.50;14.60;97143.00;;;;5075798;28;20211;-87
2022/11/10 06:10:25;;;;;;;1.33;1.23;;;14.50;79.60;14.60;97155.00;;;;5075964;28;20275;-89
2022/11/10 06:12:53;;;;;;;1.03;1.03;;;14.50;79.60;14.60;97157.00;;;;5075731;28;20730;-88
2022/11/10 06:15:21;;;;;;;1.50;1.40;;;14.40;80.30;14.50;97162.00;;;;5075488;28;20247;-86
2022/11/10 06:17:50;;;;;;;1.50;1.40;;;14.40;79.80;14.50;97169.00;;;;5075032;28;20196;-87
2022/11/10 06:20:18;;;;;;;4.00;1.40;;;14.40;79.90;14.50;97184.00;;;;5075508;28;20223;-87
2022/11/10 06:22:57;;;;;;;1.40;1.13;;;14.40;80.00;14.50;97185.00;;;;5075484;28;20196;-88
2022/11/10 06:25:24;;;;;;;1.77;1.33;;;14.30;79.90;14.40;97193.00;;;;5075163;28;20302;-86
2022/11/10 06:27:52;;;;;;;3.40;2.03;;;14.30;80.00;14.40;97196.00;;;;5075442;28;20206;-85
2022/11/10 06:30:19;;;;;;;2.37;2.13;;;14.30;80.00;14.50;97208.00;;;;5078049;28;20196;-83
2022/11/10 06:32:47;;;;;;;2.50;2.30;;;14.30;80.20;14.40;97212.00;;;;5079238;28;20235;-83
2022/11/10 06:35:16;;;;;;;1.90;1.80;;;14.30;80.10;14.40;97219.00;;;;5078122;28;20646;-86
2022/11/10 06:37:43;;;;;;;2.40;2.20;;;14.30;80.10;14.40;97223.00;;;;5075722;28;20223;-86
2022/11/10 06:40:13;;;;;;;2.47;1.90;;;14.20;80.10;14.50;97226.00;;;;5074571;28;20265;-86
2022/11/10 06:42:40;;;;;;;2.37;2.17;;;14.20;80.20;14.40;97230.00;;;;5072820;28;20214;-85
2022/11/10 06:45:08;;;;;;;2.27;2.07;;;14.20;80.10;14.40;97238.00;;;;5074160;28;20227;-85
2022/11/10 06:47:35;;;;;;;1.87;1.77;;;14.20;80.00;14.40;97246.00;;;;5065801;28;20223;-85
2022/11/10 06:50:03;;;;;;;4.57;3.63;;;14.20;80.10;14.40;97246.00;;;;5074418;28;20239;-85
2022/11/10 06:52:31;;;;;;;3.80;3.40;;;14.20;80.20;14.40;97258.00;;;;5071746;28;20199;-85
2022/11/10 06:54:59;;;;;;;5.43;3.93;;;14.20;80.20;14.40;97263.00;;;;5075616;28;20251;-85
2022/11/10 06:57:26;;;;;;;2.80;2.60;;;14.20;80.10;14.40;97265.00;;;;5076759;28;20638;-86
2022/11/10 06:59:54;;;;;;;4.97;2.60;;;14.20;80.00;14.40;97267.00;;;;5075183;28;20291;-86
2022/11/10 07:02:21;;;;;;;6.97;2.27;;;14.20;80.00;14.40;97275.00;;;;5074072;28;20196;-86
2022/11/10 07:04:49;;;;;;;2.20;2.07;;;14.20;79.90;14.40;97277.00;;;;5074599;28;20291;-85
2022/11/10 07:07:17;;;;;;;1.87;1.77;;;14.20;79.80;14.30;97279.00;;;;5070644;28;20196;-84
2022/11/10 07:09:45;;;;;;;1.77;1.67;;;14.20;79.80;14.30;97283.00;;;;5070667;28;20291;-85
2022/11/10 07:12:12;;;;;;;2.13;1.93;;;14.10;79.80;14.30;97287.00;;;;5074965;28;20227;-84
2022/11/10 07:14:39;;;;;;;2.40;1.50;;;14.10;79.80;14.30;97301.00;;;;5074711;28;20257;-84
2022/11/10 07:17:07;;;;;;;2.40;2.23;;;14.10;79.90;14.30;97298.00;;;;5073989;28;20223;-84
2022/11/10 07:19:34;;;;;;;4.90;4.07;;;14.10;79.90;14.30;97311.00;;;;5074022;28;20214;-84
2022/11/10 07:22:01;;;;;;;8.50;7.77;;;14.10;79.80;14.30;97311.00;;;;5074187;28;20679;-85
2022/11/10 07:24:29;;;;;;;6.93;6.30;;;14.10;79.80;14.20;97315.00;;;;5074271;28;20758;-84
2022/11/10 07:26:58;;;;;;;5.40;4.90;;;14.10;79.90;14.20;97310.00;;;;5074226;28;20203;-84
2022/11/10 07:29:26;;;;;;;3.73;3.43;;;14.10;79.80;14.20;97318.00;;;;5073489;28;20287;-84
2022/11/10 07:31:53;;;;;;;3.07;2.77;;;14.00;79.70;14.20;97322.00;;;;5065662;28;20212;-83
2022/11/10 07:34:20;;;;;;;2.43;2.23;;;14.00;79.80;14.20;97320.00;;;;5053321;28;20247;-84
2022/11/10 07:36:48;;;;;;;2.87;2.20;;;14.00;79.80;14.20;97315.00;;;;5057271;28;20305;-84
2022/11/10 07:39:16;;;;;;;1.93;1.83;;;14.00;80.00;14.20;97326.00;;;;5053710;28;20200;-84
2022/11/10 07:41:43;;;;;;;3.00;1.80;;;14.00;80.00;14.20;97328.00;;;;5053786;28;20307;-84
2022/11/10 07:44:11;;;;;;;2.20;1.97;;;14.00;80.20;14.20;97328.00;;;;5069977;28;20318;-84
2022/11/10 07:46:39;;;;;;;2.20;1.90;;;14.00;80.50;14.20;97332.00;;;;5075011;28;20199;-84
2022/11/10 07:49:07;;;;;;;2.47;1.73;;;14.00;80.60;14.20;97327.00;;;;5074627;28;20254;-84
2022/11/10 07:51:34;;;;;;;2.00;1.80;;;14.00;80.80;14.20;97324.00;;;;5066467;28;20566;-84
2022/11/10 07:54:01;;;;;;;1.93;1.80;;;14.10;81.00;14.30;97334.00;;;;5061628;28;20306;-84
2022/11/10 07:56:28;;;;;;;1.67;1.57;;;14.10;81.10;14.30;97341.00;;;;5073906;28;20231;-84
2022/11/10 07:58:55;;;;;;;1.50;1.40;;;14.10;81.30;14.40;97341.00;;;;5073658;28;20235;-84
2022/11/10 08:01:24;;;;;;;1.57;1.47;;;14.20;81.50;14.40;97348.00;;;;5073800;28;20302;-84
2022/11/10 08:03:51;;;;;;;1.37;1.30;;;14.20;81.70;14.50;97354.00;;;;5074790;28;20247;-84
2022/11/10 08:06:18;;;;;;;1.50;1.40;;;14.20;81.80;14.50;97353.00;;;;5067973;28;20258;-84
2022/11/10 08:08:47;;;;;;;2.33;1.20;;;14.30;81.90;14.60;97356.00;;;;5061703;28;20569;-84
2022/11/10 08:11:14;;;;;;;1.10;1.00;;;14.30;82.00;14.70;97364.00;;;;5070929;28;20782;-85
2022/11/10 08:13:42;;;;;;;2.20;1.70;;;14.40;82.10;14.70;97367.00;;;;5073316;28;20207;-85
2022/11/10 08:16:09;;;;;;;1.43;1.27;;;14.40;82.30;14.80;97370.00;;;;5077590;28;20249;-85
2022/11/10 08:18:38;;;;;;;1.90;1.20;;;14.50;82.40;14.90;97361.00;;;;5059214;28;20702;-85
2022/11/10 08:21:06;;;;;;;3.33;1.10;;;14.50;82.20;14.90;97377.00;;;;5070976;28;20256;-85
2022/11/10 08:23:33;;;;;;;2.57;1.13;;;14.60;82.30;15.00;97372.00;;;;5061757;28;20691;-85
2022/11/10 08:26:02;;;;;;;2.03;1.30;;;14.70;82.30;15.10;97381.00;;;;5067298;28;20737;-85
2022/11/10 08:28:29;;;;;;;1.60;1.10;;;14.70;82.30;15.20;97386.00;;;;5069645;28;20227;-84
2022/11/10 08:30:56;;;;;;;1.50;1.40;;;14.80;82.50;15.20;97390.00;;;;5068721;28;20236;-85
2022/11/10 08:33:24;;;;;;;2.30;1.20;;;14.80;82.60;15.30;97393.00;;;;5066270;28;20212;-85
2022/11/10 08:35:52;;;;;;;1.93;1.10;;;14.90;82.40;15.30;97400.00;;;;5064702;28;20564;-86
2022/11/10 08:38:22;;;;;;;1.77;1.47;;;14.90;82.50;15.40;97407.00;;;;5066858;28;20196;-86
2022/11/10 08:40:50;;;;;;;1.37;1.07;;;15.00;82.50;15.50;97403.00;;;;5064071;28;20658;-86
2022/11/10 08:43:18;;;;;;;1.97;1.07;;;15.00;82.50;15.50;97406.00;;;;5067340;28;20203;-85
2022/11/10 08:45:46;;;;;;;1.50;1.23;;;15.10;82.70;15.60;97405.00;;;;5063250;28;20320;-86
2022/11/10 08:48:16;;;;;;;1.57;1.30;;;15.20;82.80;15.60;97417.00;;;;5067969;28;20665;-85
2022/11/10 08:50:44;;;;;;;1.17;1.07;;;15.30;82.60;15.70;97427.00;;;;5064574;28;20289;-85
2022/11/10 08:53:15;;;;;;;1.77;1.10;;;15.30;82.50;15.70;97426.00;;;;5067782;28;20291;-85
2022/11/10 08:55:44;;;;;;;1.40;1.10;;;15.40;82.40;15.80;97438.00;;;;5067403;28;20224;-86
2022/11/10 08:58:14;;;;;;;1.10;1.10;;;15.40;82.30;15.80;97436.00;;;;5063726;28;20603;-85
2022/11/10 09:00:41;;;;;;;2.20;1.40;;;15.50;82.40;15.90;97437.00;;;;5065662;28;20318;-85
2022/11/10 09:03:13;;;;;;;1.40;1.30;;;15.50;82.20;15.90;97442.00;;;;5065996;28;20250;-85
2022/11/10 09:05:42;;;;;;;1.40;1.30;;;15.50;82.10;15.90;97446.00;;;;5064736;28;20301;-84
2022/11/10 09:08:10;;;;;;;1.50;1.40;;;15.60;82.10;16.00;97448.00;;;;5066869;28;20204;-85
2022/11/10 09:10:41;;;;;;;1.50;1.40;;;15.60;82.00;16.00;97444.00;;;;5062846;28;20292;-85
2022/11/10 09:13:10;;;;;;;2.03;1.20;;;15.70;81.90;16.00;97449.00;;;;5067025;28;20291;-84
2022/11/10 09:15:37;;;;;;;1.40;1.30;;;15.70;82.50;16.10;97458.00;;;;5063023;28;20301;-84
2022/11/10 09:18:08;;;;;;;2.20;1.50;;;15.70;81.60;16.10;97468.00;;;;5067216;28;20243;-85
2022/11/10 09:20:38;;;;;;;2.17;1.60;;;15.70;81.60;16.20;97474.00;;;;5063459;28;20266;-85
2022/11/10 09:23:06;;;;;;;1.67;1.30;;;15.80;81.90;16.20;97470.00;;;;5066884;28;20291;-84
2022/11/10 09:25:33;;;;;;;1.80;1.30;;;15.90;82.00;16.30;97482.00;;;;5065020;28;20291;-84
2022/11/10 09:28:02;;;;;;;2.77;1.67;;;15.90;82.00;16.40;97481.00;;;;5070213;22;20319;-84
2022/11/10 09:30:30;;;;;;;1.20;1.10;;;16.00;82.00;16.50;97485.00;;;;5046242;28;20243;-83
2022/11/10 09:32:59;;;;;;;1.50;1.20;;;16.10;81.70;16.60;97485.00;;;;5042298;28;20201;-83
2022/11/10 09:35:27;;;;;;;1.77;1.60;;;16.20;81.80;16.70;97487.00;;;;5043877;28;20308;-83
2022/11/10 09:37:54;;;;;;;2.13;1.27;;;16.30;82.10;16.90;97490.00;;;;5044058;28;20239;-83
2022/11/10 09:40:29;;;;;;;1.40;1.10;;;16.40;82.00;17.00;97479.00;;;;5044758;28;20239;-83
2022/11/10 09:43:02;;;;;;;2.60;1.20;;;16.50;81.90;17.10;97493.00;;;;5046456;28;20570;-83
2022/11/10 09:45:33;;;;;;;2.67;1.20;;;16.60;81.50;17.20;97492.00;;;;5042452;28;20278;-83
2022/11/10 09:48:06;;;;;;;1.33;0.93;;;16.70;81.00;17.20;97495.00;;;;5041986;28;20736;-83
2022/11/10 09:50:46;;;;;;;2.37;1.20;;;16.70;80.50;17.20;97504.00;;;;5039348;28;20613;-83
2022/11/10 09:53:21;;;;;;;0.90;0.90;;;16.80;80.00;17.20;97500.00;;;;5046543;28;20200;-83
2022/11/10 09:55:53;;;;;;;2.30;1.20;;;16.90;79.50;17.20;97501.00;;;;5042806;28;20259;-83
2022/11/10 09:58:25;;;;;;;1.50;0.90;;;16.90;78.90;17.20;97511.00;;;;5046074;28;20288;-83
2022/11/10 10:01:07;;;;;;;1.73;1.00;;;16.90;78.20;17.20;97517.00;;;;5045816;28;20227;-83
2022/11/10 10:03:39;;;;;;;1.17;0.93;;;16.90;78.20;17.30;97519.00;;;;5045702;28;20258;-83
2022/11/10 10:06:12;;;;;;;1.40;1.30;;;17.00;79.20;17.40;97523.00;;;;5038544;28;20708;-83
2022/11/10 10:09:02;;;;;;;1.30;1.20;;;17.10;79.90;17.50;97527.00;;;;5044192;28;20230;-83
2022/11/10 10:11:49;;;;;;;1.40;0.90;;;17.20;80.00;17.70;97528.00;;;;5039051;28;20717;-83
2022/11/10 10:14:58;;;;;;;1.50;1.27;;;17.30;80.40;17.90;97530.00;;;;5045368;28;20696;-84
2022/11/10 10:17:36;;;;;;;1.77;1.00;;;17.40;80.50;18.10;97533.00;;;;5039138;28;20221;-84
2022/11/10 10:20:18;;;;;;;3.17;0.90;;;17.60;79.80;18.30;97531.00;;;;5045329;28;20591;-83
2022/11/10 10:23:07;;;;;;;1.63;0.70;;;17.80;78.60;18.40;97530.00;;;;5039082;28;20213;-83
2022/11/10 10:25:39;;;;;;;1.43;0.90;;;17.90;77.80;18.40;97533.00;;;;5044768;28;20274;-83
2022/11/10 10:28:19;;;;;;;1.37;0.73;;;18.00;76.90;18.40;97542.00;;;;5038226;28;20308;-83
2022/11/10 10:30:48;;;;;;;0.80;0.80;;;18.10;76.50;18.40;97550.00;;;;5038984;28;20288;-83
2022/11/10 10:33:19;;;;;;;1.47;0.63;;;18.10;76.20;18.30;97549.00;;;;5043303;28;20205;-83
2022/11/10 10:35:49;;;;;;;1.60;0.87;;;18.10;75.80;18.30;97540.00;;;;5040609;28;20312;-83
2022/11/10 10:38:25;;;;;;;1.33;0.60;;;18.10;75.10;18.20;97544.00;;;;5043960;28;20201;-83
2022/11/10 10:40:58;;;;;;;1.47;0.80;;;18.10;74.20;18.20;97539.00;;;;5038249;28;20197;-84
2022/11/10 10:43:25;;;;;;;1.47;0.73;;;18.00;73.70;18.10;97543.00;;;;5042863;28;20193;-83
2022/11/10 10:46:08;;;;;;;1.60;1.00;;;17.90;73.80;18.10;97541.00;;;;5041533;28;20206;-83
2022/11/10 10:48:35;;;;;;;1.13;0.80;;;17.90;72.70;18.00;97543.00;;;;5041226;28;20740;-83
2022/11/10 10:51:09;;;;;;;1.00;0.60;;;17.80;73.40;18.00;97542.00;;;;5032808;28;20663;-83
2022/11/10 10:53:48;;;;;;;0.90;0.60;;;17.80;73.50;17.90;97540.00;;;;5013110;28;20190;-83
2022/11/10 10:56:22;;;;;;;0.90;0.60;;;17.80;73.20;17.90;97551.00;;;;5025564;28;20204;-83
2022/11/10 10:58:54;;;;;;;2.07;0.70;;;17.70;74.20;17.80;97551.00;;;;5052517;28;20185;-83
2022/11/10 11:01:30;;;;;;;2.20;1.03;;;17.70;73.00;17.80;97567.00;;;;5052048;28;20209;-84
2022/11/10 11:03:59;;;;;;;0.73;0.63;;;17.60;72.50;17.70;97572.00;;;;5051341;28;20251;-83
2022/11/10 11:06:29;;;;;;;1.20;0.70;;;17.50;72.50;17.60;97571.00;;;;5032330;28;20198;-84
2022/11/10 11:09:00;;;;;;;1.60;0.63;;;17.50;72.20;17.50;97574.00;;;;5042682;28;20224;-84
2022/11/10 11:11:31;;;;;;;1.70;1.13;;;17.40;72.20;17.50;97576.00;;;;5045874;28;20252;-83
2022/11/10 11:14:20;;;;;;;0.97;0.67;;;17.30;72.10;17.40;97572.00;;;;5036158;28;20314;-84
2022/11/10 11:16:51;;;;;;;2.67;0.90;;;17.30;71.30;17.40;97567.00;;;;5048161;28;20215;-83
2022/11/10 11:19:22;;;;;;;2.03;0.83;;;17.20;72.30;17.40;97575.00;;;;5047016;28;20556;-82
2022/11/10 11:22:27;;;;;;;1.50;0.80;;;17.20;72.50;17.40;97570.00;;;;5040104;28;20300;-82